Terminal Aerodrome Forecast
Issued by NWS Charleston, WV

Current Version | Previous Version | Graphics & Text | Print | Product List | Glossary On
Versions: 1 2 3 4 5 6 7 8 9 10 11 12 13 14 15 16 17 18 19 20 21 22 23 24 25 26
000
FTUS41 KRLX 272104 AAA
TAFHTS
TAF AMD
KHTS 272104Z 2721/2818 VRB05KT P6SM SCT045
     FM272330 VRB04KT 3SM -TSRA OVC030CB
     FM280045 VRB03KT P6SM SCT050
     FM281300 00000KT P6SM VCTS SCT035CB=

USA.gov is the U.S. government's official web portal to all federal, state and local government web resources and services.